Terminal Aerodrome Forecast
Issued by NWS

Home | Current Version | Previous Version | Graphics & Text | Print | Product List | Glossary On
Versions: 1 2 3 4 5 6 7 8 9 10 11 12 13 14 15 16 17 18
862
FTUS43 KABR 201128
TAFMBG
TAF
KMBG 201128Z 2012/2112 36006KT P6SM VCSH FEW060 BKN070 OVC090
      TEMPO 2012/2014 -SHRA
     FM201400 05005KT P6SM OVC070
     FM201700 11004KT P6SM OVC070
     FM202000 04004KT P6SM BKN050
     FM210000 02008KT P6SM OVC070
     FM210600 02012KT P6SM BKN060=

USA.gov is the U.S. government's official web portal to all federal, state and local government web resources and services.